createdAt,value
2023-02-26T00:01:25.153Z,10.90
2023-02-26T00:03:53.562Z,13.47
2023-02-26T00:06:21.672Z,6.80
2023-02-26T00:08:49.621Z,14.13
2023-02-26T00:11:17.866Z,12.10
2023-02-26T00:13:47.582Z,12.00
2023-02-26T00:16:20.060Z,9.20
2023-02-26T00:18:48.382Z,12.97
2023-02-26T00:21:17.860Z,12.10
2023-02-26T00:23:45.858Z,10.47
2023-02-26T00:26:13.480Z,11.57
2023-02-26T00:28:41.584Z,11.50
2023-02-26T00:31:11.666Z,10.47
2023-02-26T00:33:40.283Z,6.60
2023-02-26T00:36:14.408Z,19.37
2023-02-26T00:38:44.418Z,7.80
2023-02-26T00:41:12.641Z,7.83
2023-02-26T00:43:40.495Z,13.57
2023-02-26T00:46:12.147Z,10.67
2023-02-26T00:48:49.565Z,8.20
2023-02-26T00:51:23.358Z,8.93
2023-02-26T00:53:55.476Z,9.93
2023-02-26T00:56:23.354Z,9.63
2023-02-26T00:58:51.121Z,10.13
2023-02-26T01:01:19.253Z,11.67
2023-02-26T01:03:49.045Z,10.87
2023-02-26T01:06:19.935Z,8.67
2023-02-26T01:08:51.138Z,8.77
2023-02-26T01:11:21.152Z,6.80
2023-02-26T01:13:49.329Z,7.67
2023-02-26T01:16:22.315Z,5.40
2023-02-26T01:18:54.368Z,10.20
2023-02-26T01:21:24.822Z,11.47
2023-02-26T01:23:52.888Z,10.47
2023-02-26T01:26:24.520Z,7.67
2023-02-26T01:28:52.692Z,6.27
2023-02-26T01:31:28.109Z,7.73
2023-02-26T01:34:00.262Z,11.60
2023-02-26T01:36:29.799Z,10.67
2023-02-26T01:39:01.308Z,10.37
2023-02-26T01:41:31.392Z,9.10
2023-02-26T01:44:04.714Z,6.27
2023-02-26T01:46:35.940Z,8.43
2023-02-26T01:49:06.004Z,11.07
2023-02-26T01:51:46.256Z,7.20
2023-02-26T01:54:14.878Z,9.30
2023-02-26T01:56:42.921Z,9.37
2023-02-26T01:59:11.606Z,10.53
2023-02-26T02:01:40.221Z,14.27
2023-02-26T02:04:11.227Z,9.23
2023-02-26T02:06:39.375Z,8.17
2023-02-26T02:09:08.181Z,6.93
2023-02-26T02:11:36.137Z,10.47
2023-02-26T02:14:11.392Z,11.20
2023-02-26T02:16:43.604Z,9.63
2023-02-26T02:19:25.368Z,6.20
2023-02-26T02:22:03.535Z,7.63
2023-02-26T02:24:35.855Z,19.03
2023-02-26T02:27:05.152Z,8.67
2023-02-26T02:29:56.002Z,10.73
2023-02-26T02:32:27.217Z,9.87
2023-02-26T02:34:58.643Z,7.53
2023-02-26T02:37:29.109Z,11.23
2023-02-26T02:39:59.998Z,9.87
2023-02-26T02:42:29.987Z,12.10
2023-02-26T02:44:59.112Z,11.23
2023-02-26T02:47:28.612Z,8.30
2023-02-26T02:49:58.951Z,8.43
2023-02-26T02:52:31.095Z,9.93
2023-02-26T02:55:01.836Z,11.53
2023-02-26T02:57:32.403Z,11.40
2023-02-26T03:00:02.319Z,10.10
2023-02-26T03:02:33.612Z,15.87
2023-02-26T03:05:01.490Z,35.50
2023-02-26T03:07:30.585Z,22.37
2023-02-26T03:09:58.427Z,12.87
2023-02-26T03:12:27.859Z,26.47
2023-02-26T03:14:55.747Z,17.23
2023-02-26T03:17:28.767Z,31.60
2023-02-26T03:20:05.093Z,48.47
2023-02-26T03:22:37.393Z,18.17
2023-02-26T03:25:09.024Z,8.43
2023-02-26T03:27:39.217Z,17.23
2023-02-26T03:30:09.168Z,9.53
2023-02-26T03:32:43.412Z,8.37
2023-02-26T03:35:14.461Z,9.20
2023-02-26T03:37:45.399Z,9.90
2023-02-26T03:40:15.257Z,6.63
2023-02-26T03:42:45.276Z,7.73
2023-02-26T03:45:14.763Z,9.40
2023-02-26T03:47:46.334Z,23.43
2023-02-26T03:50:18.538Z,20.13
2023-02-26T03:52:48.274Z,14.77
2023-02-26T03:55:17.961Z,11.50
2023-02-26T03:57:46.342Z,7.60
2023-02-26T04:00:14.968Z,6.63
2023-02-26T04:02:46.036Z,9.40
2023-02-26T04:05:17.510Z,6.57
2023-02-26T04:07:46.340Z,8.07
2023-02-26T04:10:16.582Z,10.63
2023-02-26T04:12:44.706Z,10.80
2023-02-26T04:15:13.159Z,5.40
2023-02-26T04:17:40.925Z,6.47
2023-02-26T04:20:10.979Z,7.57
2023-02-26T04:22:40.651Z,9.80
2023-02-26T04:25:10.132Z,11.87
2023-02-26T04:27:37.871Z,7.87
2023-02-26T04:30:05.994Z,7.50
2023-02-26T04:32:33.721Z,7.17
2023-02-26T04:35:01.745Z,11.33
2023-02-26T04:37:29.497Z,9.50
2023-02-26T04:40:01.220Z,8.67
2023-02-26T04:42:30.445Z,6.77
2023-02-26T04:44:58.545Z,6.10
2023-02-26T04:47:26.476Z,8.97
2023-02-26T04:49:54.397Z,8.73
2023-02-26T04:52:22.157Z,11.97
2023-02-26T04:54:49.899Z,9.80
2023-02-26T04:57:19.338Z,10.13
2023-02-26T04:59:47.012Z,10.77
2023-02-26T05:02:15.337Z,8.23
2023-02-26T05:04:43.560Z,9.93
2023-02-26T05:07:13.175Z,12.83
2023-02-26T05:09:40.951Z,8.40
2023-02-26T05:12:09.260Z,12.17
2023-02-26T05:14:38.580Z,9.53
2023-02-26T05:17:06.181Z,10.03
2023-02-26T05:19:35.254Z,7.07
2023-02-26T05:22:03.111Z,5.87
2023-02-26T05:24:30.892Z,8.80
2023-02-26T05:26:58.943Z,10.97
2023-02-26T05:29:27.140Z,8.80
2023-02-26T05:31:56.421Z,6.90
2023-02-26T05:34:24.483Z,9.07
2023-02-26T05:36:52.306Z,11.90
2023-02-26T05:39:20.194Z,10.93
2023-02-26T05:41:48.267Z,8.80
2023-02-26T05:44:16.246Z,14.97
2023-02-26T05:46:44.160Z,15.03
2023-02-26T05:49:13.610Z,12.27
2023-02-26T05:51:42.896Z,10.33
2023-02-26T05:54:10.696Z,9.50
2023-02-26T05:56:38.630Z,9.80
2023-02-26T05:59:08.291Z,11.03
2023-02-26T06:01:37.544Z,10.43
2023-02-26T06:04:05.534Z,6.87
2023-02-26T06:06:34.948Z,15.20
2023-02-26T06:09:03.446Z,15.63
2023-02-26T06:11:34.064Z,11.53
2023-02-26T06:14:02.185Z,11.60
2023-02-26T06:16:30.065Z,11.63
2023-02-26T06:18:57.789Z,10.73
2023-02-26T06:21:25.541Z,9.97
2023-02-26T06:23:55.248Z,9.40
2023-02-26T06:26:25.814Z,9.53
2023-02-26T06:28:54.667Z,8.40
2023-02-26T06:31:22.376Z,8.60
2023-02-26T06:33:50.445Z,15.67
2023-02-26T06:36:18.360Z,15.00
2023-02-26T06:38:46.334Z,13.07
2023-02-26T06:41:15.397Z,17.13
2023-02-26T06:43:43.321Z,16.07
2023-02-26T06:46:11.228Z,19.87
2023-02-26T06:48:38.927Z,8.07
2023-02-26T06:51:07.700Z,8.50
2023-02-26T06:53:35.423Z,12.47
2023-02-26T06:56:03.507Z,11.53
2023-02-26T06:58:32.848Z,13.10
2023-02-26T07:01:00.647Z,14.23
2023-02-26T07:03:28.433Z,10.60
2023-02-26T07:05:56.453Z,9.73
2023-02-26T07:08:24.750Z,12.73
2023-02-26T07:10:53.075Z,12.73
2023-02-26T07:13:27.579Z,13.33
2023-02-26T07:15:57.169Z,10.40
2023-02-26T07:18:27.514Z,16.20
2023-02-26T07:20:55.392Z,14.53
2023-02-26T07:23:23.330Z,17.63
2023-02-26T07:25:51.306Z,17.10
2023-02-26T07:28:21.838Z,14.47
2023-02-26T07:30:50.956Z,11.43
2023-02-26T07:33:23.021Z,17.07
2023-02-26T07:35:50.875Z,14.00
2023-02-26T07:38:19.736Z,16.00
2023-02-26T07:40:48.059Z,11.63
2023-02-26T07:43:16.459Z,12.13
2023-02-26T07:45:44.187Z,15.80
2023-02-26T07:48:11.964Z,11.40
2023-02-26T07:50:41.415Z,9.00
2023-02-26T07:53:09.101Z,15.27
2023-02-26T07:55:37.066Z,15.80
2023-02-26T07:58:05.007Z,16.13
2023-02-26T08:00:33.260Z,18.27
2023-02-26T08:03:01.498Z,17.77
2023-02-26T08:05:30.214Z,8.90
2023-02-26T08:08:02.041Z,14.57
2023-02-26T08:10:30.761Z,12.53
2023-02-26T08:12:58.885Z,9.50
2023-02-26T08:15:26.704Z,11.77
2023-02-26T08:17:54.894Z,17.40
2023-02-26T08:20:25.794Z,11.60
2023-02-26T08:22:53.597Z,11.87
2023-02-26T08:25:22.751Z,16.13
2023-02-26T08:27:50.589Z,17.27
2023-02-26T08:30:18.632Z,17.67
2023-02-26T08:32:46.737Z,13.97
2023-02-26T08:35:14.464Z,23.67
2023-02-26T08:37:42.166Z,15.77
2023-02-26T08:40:12.031Z,21.27
2023-02-26T08:42:42.425Z,24.63
2023-02-26T08:45:11.267Z,18.10
2023-02-26T08:47:55.653Z,13.40
2023-02-26T08:50:25.128Z,14.60
2023-02-26T08:52:52.868Z,15.30
2023-02-26T08:55:20.647Z,20.93
2023-02-26T08:57:49.816Z,13.07
2023-02-26T09:00:18.763Z,10.87
2023-02-26T09:02:47.105Z,8.27
2023-02-26T09:05:15.706Z,11.80
2023-02-26T09:07:45.247Z,10.30
2023-02-26T09:10:14.268Z,13.00
2023-02-26T09:12:42.313Z,12.70
2023-02-26T09:15:12.781Z,16.33
2023-02-26T09:17:40.761Z,11.37
2023-02-26T09:20:09.552Z,9.67
2023-02-26T09:22:38.234Z,10.87
2023-02-26T09:25:06.917Z,12.13
2023-02-26T09:27:35.781Z,9.10
2023-02-26T09:30:03.609Z,10.93
2023-02-26T09:32:32.931Z,6.83
2023-02-26T09:35:00.835Z,11.93
2023-02-26T09:37:28.549Z,9.33
2023-02-26T09:39:57.162Z,11.27
2023-02-26T09:42:30.064Z,12.00
2023-02-26T09:45:00.300Z,9.73
2023-02-26T09:47:30.078Z,9.03
2023-02-26T09:50:02.092Z,11.60
2023-02-26T09:52:32.934Z,14.73
2023-02-26T09:55:05.646Z,15.30
2023-02-26T09:57:34.255Z,14.30
2023-02-26T10:00:02.432Z,14.37
2023-02-26T10:02:35.157Z,16.10
2023-02-26T10:05:10.760Z,20.53
2023-02-26T10:07:41.996Z,9.87
2023-02-26T10:10:16.811Z,11.63
2023-02-26T10:12:45.879Z,16.87
2023-02-26T10:15:15.750Z,13.17
2023-02-26T10:17:55.665Z,13.67
2023-02-26T10:20:26.840Z,17.33
2023-02-26T10:22:57.857Z,16.10
2023-02-26T10:25:28.521Z,12.10
2023-02-26T10:27:59.483Z,11.33
2023-02-26T10:30:31.647Z,15.53
2023-02-26T10:33:05.411Z,7.03
2023-02-26T10:35:38.572Z,7.17
2023-02-26T10:38:10.621Z,8.57
2023-02-26T10:40:41.437Z,14.03
2023-02-26T10:43:15.072Z,10.53
2023-02-26T10:45:50.532Z,11.50
2023-02-26T10:48:27.364Z,11.27
2023-02-26T10:50:57.654Z,9.87
2023-02-26T10:53:25.919Z,15.03
2023-02-26T10:55:57.255Z,15.20
2023-02-26T10:58:26.158Z,10.50
2023-02-26T11:00:55.542Z,8.30
2023-02-26T11:03:30.159Z,10.37
2023-02-26T11:05:59.574Z,13.57
2023-02-26T11:08:28.656Z,15.87
2023-02-26T11:10:58.317Z,16.37
2023-02-26T11:13:27.831Z,7.70
2023-02-26T11:15:56.322Z,9.03
2023-02-26T11:18:27.220Z,13.33
2023-02-26T11:20:56.489Z,10.33
2023-02-26T11:23:27.384Z,12.40
2023-02-26T11:25:56.786Z,16.73
2023-02-26T11:28:26.306Z,9.03
2023-02-26T11:30:54.825Z,11.93
2023-02-26T11:33:24.563Z,14.30
2023-02-26T11:35:54.538Z,14.77
2023-02-26T11:38:24.162Z,11.90
2023-02-26T11:40:56.055Z,14.10
2023-02-26T11:43:25.098Z,10.77
2023-02-26T11:45:55.944Z,9.73
2023-02-26T11:48:25.054Z,13.37
2023-02-26T11:50:54.811Z,9.50
2023-02-26T11:53:27.273Z,8.80
2023-02-26T11:56:02.316Z,7.70
2023-02-26T11:58:32.849Z,10.10
2023-02-26T12:01:02.466Z,12.20
2023-02-26T12:03:33.055Z,13.43
2023-02-26T12:06:01.671Z,9.83
2023-02-26T12:08:31.242Z,12.97
2023-02-26T12:11:13.184Z,15.53
2023-02-26T12:13:44.426Z,11.07
2023-02-26T12:16:18.590Z,8.80
2023-02-26T12:18:52.871Z,15.10
2023-02-26T12:21:26.774Z,12.43
2023-02-26T12:24:17.368Z,9.20
2023-02-26T12:26:52.028Z,9.57
2023-02-26T12:29:31.106Z,12.10
2023-02-26T12:32:05.344Z,12.53
2023-02-26T12:34:47.019Z,14.63
2023-02-26T12:37:22.564Z,11.57
2023-02-26T12:39:55.855Z,18.07
2023-02-26T12:42:30.464Z,10.97
2023-02-26T12:45:05.716Z,16.03
2023-02-26T12:47:39.363Z,20.27
2023-02-26T12:50:12.568Z,15.20
2023-02-26T12:52:56.469Z,11.77
2023-02-26T12:55:28.562Z,12.40
2023-02-26T12:58:09.487Z,14.37
2023-02-26T13:00:46.967Z,14.43
2023-02-26T13:03:32.506Z,21.57
2023-02-26T13:06:21.300Z,14.00
2023-02-26T13:08:51.912Z,13.60
2023-02-26T13:11:26.719Z,13.30
2023-02-26T13:14:09.830Z,11.30
2023-02-26T13:16:42.815Z,16.63
2023-02-26T13:19:16.200Z,12.60
2023-02-26T13:21:45.857Z,13.50
2023-02-26T13:24:16.281Z,15.50
2023-02-26T13:26:47.184Z,12.47
2023-02-26T13:29:17.200Z,12.30
2023-02-26T13:31:52.994Z,16.47
2023-02-26T13:34:30.751Z,18.23
2023-02-26T13:36:59.173Z,13.67
2023-02-26T13:39:38.443Z,14.50
2023-02-26T13:42:11.439Z,13.43
2023-02-26T13:44:43.567Z,17.17
2023-02-26T13:47:18.977Z,17.03
2023-02-26T13:49:52.903Z,14.90
2023-02-26T13:52:24.211Z,11.40
2023-02-26T13:54:52.193Z,16.13
2023-02-26T13:57:26.530Z,27.10
2023-02-26T13:59:55.884Z,18.90
2023-02-26T14:02:48.889Z,23.63
2023-02-26T14:05:31.889Z,14.00
2023-02-26T14:08:22.330Z,17.73
2023-02-26T14:10:56.088Z,17.27
2023-02-26T14:13:24.605Z,21.00
2023-02-26T14:16:01.433Z,21.47
2023-02-26T14:18:37.562Z,20.20
2023-02-26T14:21:24.338Z,21.20
2023-02-26T14:23:54.288Z,16.87
2023-02-26T14:26:23.142Z,15.47
2023-02-26T14:28:59.152Z,17.20
2023-02-26T14:31:27.978Z,21.17
2023-02-26T14:34:01.193Z,18.67
2023-02-26T14:36:33.620Z,19.13
2023-02-26T14:39:05.561Z,27.03
2023-02-26T14:41:36.450Z,25.93
2023-02-26T14:44:07.711Z,25.10
2023-02-26T14:46:36.259Z,24.77
2023-02-26T14:49:05.075Z,35.27
2023-02-26T14:51:40.033Z,24.03
2023-02-26T14:54:19.728Z,25.33
2023-02-26T14:56:53.509Z,19.83
2023-02-26T14:59:26.450Z,23.93
2023-02-26T15:01:59.357Z,25.57
2023-02-26T15:04:43.525Z,33.33
2023-02-26T15:07:16.663Z,36.47
2023-02-26T15:09:57.486Z,25.97
2023-02-26T15:12:31.114Z,25.80
2023-02-26T15:15:13.234Z,27.27
2023-02-26T15:17:48.878Z,29.10
2023-02-26T15:20:20.903Z,25.83
2023-02-26T15:23:06.413Z,25.07
2023-02-26T15:25:37.594Z,25.80
2023-02-26T15:28:06.981Z,35.03
2023-02-26T15:30:36.016Z,29.03
2023-02-26T15:33:05.398Z,30.27
2023-02-26T15:35:34.995Z,28.83
2023-02-26T15:38:04.438Z,27.70
2023-02-26T15:40:34.378Z,25.23
2023-02-26T15:43:04.192Z,25.97
2023-02-26T15:45:33.772Z,21.50
2023-02-26T15:48:02.983Z,21.37
2023-02-26T15:50:31.759Z,26.63
2023-02-26T15:53:01.061Z,27.33
2023-02-26T15:55:32.488Z,20.20
2023-02-26T15:58:00.304Z,26.20
2023-02-26T16:00:32.938Z,35.43
2023-02-26T16:03:00.742Z,26.20
2023-02-26T16:05:29.179Z,18.30
2023-02-26T16:07:57.787Z,18.63
2023-02-26T16:10:30.318Z,16.07
2023-02-26T16:13:00.236Z,27.10
2023-02-26T16:15:31.221Z,22.37
2023-02-26T16:17:59.794Z,22.20
2023-02-26T16:20:28.922Z,26.10
2023-02-26T16:22:58.146Z,21.20
2023-02-26T16:25:29.638Z,24.77
2023-02-26T16:28:01.288Z,20.97
2023-02-26T16:30:32.931Z,26.87
2023-02-26T16:33:01.017Z,15.80
2023-02-26T16:35:34.920Z,23.10
2023-02-26T16:38:12.015Z,15.27
2023-02-26T16:40:44.993Z,22.50
2023-02-26T16:43:42.927Z,22.37
2023-02-26T16:46:13.103Z,23.17
2023-02-26T16:48:45.141Z,25.03
2023-02-26T16:51:15.965Z,21.87
2023-02-26T16:53:46.083Z,20.83
2023-02-26T16:56:16.908Z,21.47
2023-02-26T16:58:45.564Z,18.00
2023-02-26T17:01:17.492Z,15.57
2023-02-26T17:03:49.110Z,18.40
2023-02-26T17:06:20.711Z,21.47
2023-02-26T17:08:50.966Z,29.13
2023-02-26T17:11:23.399Z,20.93
2023-02-26T17:14:03.923Z,23.67
2023-02-26T17:16:33.578Z,24.03
2023-02-26T17:19:01.966Z,20.67
2023-02-26T17:21:30.091Z,20.97
2023-02-26T17:23:59.204Z,21.67
2023-02-26T17:26:26.950Z,14.83
2023-02-26T17:28:54.743Z,13.77
2023-02-26T17:31:22.781Z,21.43
2023-02-26T17:33:52.489Z,20.53
2023-02-26T17:36:20.462Z,16.17
2023-02-26T17:38:50.597Z,20.47
2023-02-26T17:41:19.071Z,15.20
2023-02-26T17:43:46.702Z,14.63
2023-02-26T17:46:14.918Z,15.13
2023-02-26T17:48:42.665Z,11.67
2023-02-26T17:51:25.109Z,9.90
2023-02-26T17:53:53.425Z,11.57
2023-02-26T17:56:25.216Z,11.43
2023-02-26T17:58:54.846Z,18.30
2023-02-26T18:01:24.788Z,19.37
2023-02-26T18:03:54.739Z,13.53
2023-02-26T18:06:24.488Z,13.43
2023-02-26T18:08:52.776Z,19.83
2023-02-26T18:11:22.273Z,16.83
2023-02-26T18:13:50.055Z,19.67
2023-02-26T18:16:18.929Z,16.90
2023-02-26T18:18:46.697Z,19.83
2023-02-26T18:21:15.233Z,14.80
2023-02-26T18:23:44.401Z,20.80
2023-02-26T18:26:12.836Z,20.87
2023-02-26T18:28:40.934Z,18.53
2023-02-26T18:31:10.404Z,23.17
2023-02-26T18:33:40.912Z,19.57
2023-02-26T18:36:09.156Z,15.53
2023-02-26T18:38:36.880Z,21.73
2023-02-26T18:41:06.230Z,19.87
2023-02-26T18:43:34.023Z,19.07
2023-02-26T18:46:02.389Z,21.33
2023-02-26T18:48:30.444Z,18.63
2023-02-26T18:50:59.499Z,22.40
2023-02-26T18:53:27.895Z,20.30
2023-02-26T18:55:58.240Z,26.17
2023-02-26T18:58:27.630Z,24.73
2023-02-26T19:00:55.266Z,24.60
2023-02-26T19:03:23.541Z,26.30
2023-02-26T19:05:57.200Z,30.37
2023-02-26T19:08:27.500Z,34.17
2023-02-26T19:10:55.181Z,26.23
2023-02-26T19:13:23.973Z,27.37
2023-02-26T19:15:53.482Z,23.13
2023-02-26T19:18:21.249Z,26.00
2023-02-26T19:20:49.168Z,31.83
2023-02-26T19:23:16.886Z,25.37
2023-02-26T19:25:44.965Z,26.80
2023-02-26T19:28:12.898Z,30.77
2023-02-26T19:30:41.072Z,23.13
2023-02-26T19:33:10.409Z,25.03
2023-02-26T19:35:38.438Z,32.03
2023-02-26T19:38:06.188Z,27.87
2023-02-26T19:40:34.588Z,26.53
2023-02-26T19:43:02.312Z,25.03
2023-02-26T19:45:30.048Z,23.80
2023-02-26T19:47:57.930Z,25.27
2023-02-26T19:50:27.904Z,32.27
2023-02-26T19:52:56.381Z,28.47
2023-02-26T19:55:24.149Z,27.47
2023-02-26T19:57:52.043Z,31.43
2023-02-26T20:00:20.036Z,32.07
2023-02-26T20:02:48.692Z,29.60
2023-02-26T20:05:18.288Z,32.13
2023-02-26T20:07:48.342Z,27.53
2023-02-26T20:10:16.868Z,34.17
2023-02-26T20:12:45.205Z,28.07
2023-02-26T20:15:13.177Z,25.27
2023-02-26T20:17:40.796Z,34.23
2023-02-26T20:20:09.541Z,28.57
2023-02-26T20:22:37.658Z,25.00
2023-02-26T20:25:07.083Z,23.87
2023-02-26T20:27:36.517Z,25.97
2023-02-26T20:30:04.775Z,21.13
2023-02-26T20:32:32.758Z,24.17
2023-02-26T20:35:00.447Z,27.73
2023-02-26T20:37:30.913Z,23.47
2023-02-26T20:39:58.786Z,25.27
2023-02-26T20:42:28.327Z,26.47
2023-02-26T20:44:56.101Z,24.50
2023-02-26T20:47:23.790Z,27.00
2023-02-26T20:49:51.973Z,25.87
2023-02-26T20:52:20.249Z,23.77
2023-02-26T20:54:48.011Z,19.37
2023-02-26T20:57:15.967Z,25.83
2023-02-26T20:59:45.250Z,20.17
2023-02-26T21:02:15.470Z,19.63
2023-02-26T21:04:43.456Z,23.07
2023-02-26T21:07:17.657Z,20.17
2023-02-26T21:09:48.063Z,23.27
2023-02-26T21:12:16.213Z,23.47
2023-02-26T21:14:45.516Z,21.37
2023-02-26T21:17:13.331Z,22.73
2023-02-26T21:19:41.077Z,19.90
2023-02-26T21:22:08.822Z,25.57
2023-02-26T21:24:36.525Z,23.90
2023-02-26T21:27:04.317Z,20.87
2023-02-26T21:29:33.058Z,21.30
2023-02-26T21:32:03.688Z,20.47
2023-02-26T21:34:34.091Z,26.43
2023-02-26T21:37:02.419Z,19.63
2023-02-26T21:39:30.967Z,19.13
2023-02-26T21:42:00.241Z,22.23
2023-02-26T21:44:28.297Z,25.37
2023-02-26T21:46:57.503Z,24.30
2023-02-26T21:49:26.770Z,21.93
2023-02-26T21:51:54.633Z,22.87
2023-02-26T21:54:22.642Z,19.50
2023-02-26T21:56:50.461Z,21.50
2023-02-26T21:59:18.289Z,23.37
2023-02-26T22:01:46.166Z,21.23
2023-02-26T22:04:13.837Z,23.07
2023-02-26T22:06:43.019Z,20.43
2023-02-26T22:09:12.845Z,19.17
2023-02-26T22:11:41.453Z,18.43
2023-02-26T22:14:09.415Z,23.23
2023-02-26T22:16:37.853Z,17.77
2023-02-26T22:19:05.610Z,19.23
2023-02-26T22:21:33.421Z,18.07
2023-02-26T22:24:03.918Z,23.03
2023-02-26T22:26:31.950Z,29.10
2023-02-26T22:29:00.846Z,23.23
2023-02-26T22:31:29.481Z,22.37
2023-02-26T22:33:57.588Z,26.00
2023-02-26T22:36:25.505Z,17.50
2023-02-26T22:38:53.392Z,19.13
2023-02-26T22:41:22.980Z,21.40
2023-02-26T22:43:53.891Z,28.07
2023-02-26T22:46:24.541Z,21.63
2023-02-26T22:48:52.817Z,20.73
2023-02-26T22:51:20.514Z,23.20
2023-02-26T22:53:48.609Z,23.23
2023-02-26T22:56:18.865Z,20.57
2023-02-26T22:58:48.069Z,20.30
2023-02-26T23:01:16.096Z,12.93
2023-02-26T23:03:43.815Z,21.07
2023-02-26T23:06:11.731Z,20.67
2023-02-26T23:08:40.642Z,18.37
2023-02-26T23:11:09.161Z,19.43
2023-02-26T23:13:38.195Z,20.13
2023-02-26T23:16:09.824Z,23.07
2023-02-26T23:18:38.012Z,22.07
2023-02-26T23:21:06.903Z,18.70
2023-02-26T23:23:34.946Z,19.77
2023-02-26T23:26:02.669Z,18.93
2023-02-26T23:28:30.552Z,20.33
2023-02-26T23:30:58.357Z,16.63
2023-02-26T23:33:27.538Z,22.73
2023-02-26T23:35:55.824Z,19.97
2023-02-26T23:38:23.675Z,19.80
2023-02-26T23:40:51.369Z,17.33
2023-02-26T23:43:19.212Z,13.93
2023-02-26T23:45:47.207Z,15.37
2023-02-26T23:48:14.862Z,18.63
2023-02-26T23:50:44.043Z,21.60
2023-02-26T23:53:12.055Z,16.93
2023-02-26T23:55:39.751Z,26.90
2023-02-26T23:58:07.616Z,21.33
